createdAt,value
2023-01-10T00:01:51.496Z,6.16
2023-01-10T00:04:19.257Z,6.28
2023-01-10T00:06:46.390Z,6.24
2023-01-10T00:09:13.995Z,6.19
2023-01-10T00:11:59.662Z,6.20
2023-01-10T00:14:29.186Z,6.24
2023-01-10T00:16:57.405Z,6.28
2023-01-10T00:19:25.580Z,6.26
2023-01-10T00:21:53.473Z,6.42
2023-01-10T00:24:23.463Z,6.40
2023-01-10T00:26:52.043Z,6.38
2023-01-10T00:29:27.886Z,6.48
2023-01-10T00:31:55.528Z,6.51
2023-01-10T00:34:23.596Z,6.53
2023-01-10T00:36:50.721Z,6.50
2023-01-10T00:39:20.306Z,6.54
2023-01-10T00:42:06.119Z,6.58
2023-01-10T00:44:33.815Z,6.66
2023-01-10T00:47:01.150Z,6.77
2023-01-10T00:49:28.617Z,6.58
2023-01-10T00:51:58.365Z,6.62
2023-01-10T00:54:26.166Z,6.63
2023-01-10T00:56:53.938Z,6.63
2023-01-10T00:59:21.663Z,6.54
2023-01-10T01:01:49.816Z,6.55
2023-01-10T01:04:18.308Z,6.59
2023-01-10T01:06:47.132Z,6.61
2023-01-10T01:09:15.543Z,6.63
2023-01-10T01:11:44.507Z,6.70
2023-01-10T01:14:12.023Z,6.60
2023-01-10T01:16:39.229Z,6.66
2023-01-10T01:19:06.797Z,6.65
2023-01-10T01:21:34.532Z,6.72
2023-01-10T01:24:02.127Z,6.86
2023-01-10T01:26:29.356Z,6.93
2023-01-10T01:28:56.777Z,6.91
2023-01-10T01:31:24.987Z,7.04
2023-01-10T01:33:53.979Z,7.11
2023-01-10T01:36:22.801Z,7.08
2023-01-10T01:38:52.196Z,7.14
2023-01-10T01:41:38.304Z,7.18
2023-01-10T01:44:17.674Z,7.27
2023-01-10T01:47:09.358Z,7.37
2023-01-10T01:49:41.585Z,7.30
2023-01-10T01:52:27.427Z,7.38
2023-01-10T01:54:58.704Z,7.49
2023-01-10T01:57:29.303Z,7.57
2023-01-10T01:59:57.020Z,7.55
2023-01-10T02:02:38.793Z,7.57
2023-01-10T02:05:11.252Z,7.93
2023-01-10T02:07:43.176Z,8.08
2023-01-10T02:10:17.669Z,8.12
2023-01-10T02:12:47.700Z,8.13
2023-01-10T02:15:16.713Z,8.20
2023-01-10T02:17:46.932Z,8.29
2023-01-10T02:20:15.929Z,8.38
2023-01-10T02:22:53.573Z,8.53
2023-01-10T02:25:42.855Z,8.45
2023-01-10T02:28:31.774Z,8.36
2023-01-10T02:31:08.334Z,8.41
2023-01-10T02:34:16.022Z,8.38
2023-01-10T02:36:53.051Z,8.63
2023-01-10T02:40:01.415Z,8.80
2023-01-10T02:43:12.492Z,8.70
2023-01-10T02:45:46.836Z,8.81
2023-01-10T02:48:32.755Z,8.81
2023-01-10T02:51:20.034Z,8.96
2023-01-10T02:54:00.786Z,8.93
2023-01-10T02:56:36.549Z,8.99
2023-01-10T02:59:14.965Z,8.84
2023-01-10T03:01:56.556Z,8.80
2023-01-10T03:04:46.028Z,8.73
2023-01-10T03:07:34.528Z,8.74
2023-01-10T03:10:10.940Z,8.74
2023-01-10T03:12:43.252Z,8.58
2023-01-10T03:15:15.619Z,8.44
2023-01-10T03:17:46.373Z,8.21
2023-01-10T03:20:14.961Z,7.81
2023-01-10T03:22:43.570Z,7.55
2023-01-10T03:25:14.838Z,7.37
2023-01-10T03:27:53.014Z,7.30
2023-01-10T03:30:32.416Z,7.10
2023-01-10T03:33:00.154Z,6.98
2023-01-10T03:36:02.538Z,6.99
2023-01-10T03:38:44.034Z,7.12
2023-01-10T03:41:15.163Z,7.06
2023-01-10T03:44:25.469Z,6.99
2023-01-10T03:47:01.435Z,7.01
2023-01-10T03:49:29.715Z,6.87
2023-01-10T03:51:59.396Z,6.79
2023-01-10T03:54:27.280Z,6.82
2023-01-10T03:56:54.673Z,6.92
2023-01-10T03:59:26.674Z,7.00
2023-01-10T04:01:55.377Z,6.93
2023-01-10T04:04:23.197Z,7.05
2023-01-10T04:06:51.736Z,7.03
2023-01-10T04:09:20.049Z,6.78
2023-01-10T04:11:47.667Z,6.59
2023-01-10T04:14:14.918Z,6.55
2023-01-10T04:16:45.203Z,6.71
2023-01-10T04:19:13.496Z,6.84
2023-01-10T04:21:41.925Z,6.79
2023-01-10T04:24:09.475Z,6.73
2023-01-10T04:26:36.877Z,6.37
2023-01-10T04:29:06.211Z,6.45
2023-01-10T04:31:33.780Z,6.34
2023-01-10T04:34:01.026Z,6.26
2023-01-10T04:36:28.596Z,6.48
2023-01-10T04:38:55.763Z,6.53
2023-01-10T04:41:28.172Z,6.64
2023-01-10T04:43:59.399Z,6.72
2023-01-10T04:46:28.863Z,6.56
2023-01-10T04:49:00.121Z,6.55
2023-01-10T04:51:32.021Z,6.73
2023-01-10T04:54:00.549Z,6.77
2023-01-10T04:56:28.070Z,6.16
2023-01-10T04:58:59.852Z,6.01
2023-01-10T05:01:27.994Z,6.25
2023-01-10T05:03:56.510Z,6.14
2023-01-10T05:06:25.001Z,6.02
2023-01-10T05:08:52.244Z,5.87
2023-01-10T05:11:19.677Z,5.65
2023-01-10T05:13:48.781Z,5.70
2023-01-10T05:16:17.138Z,5.88
2023-01-10T05:18:45.299Z,5.61
2023-01-10T05:21:14.511Z,5.59
2023-01-10T05:23:41.937Z,5.79
2023-01-10T05:26:15.329Z,5.83
2023-01-10T05:28:44.740Z,5.79
2023-01-10T05:31:14.745Z,5.99
2023-01-10T05:33:51.670Z,5.96
2023-01-10T05:36:21.275Z,6.22
2023-01-10T05:38:48.528Z,6.39
2023-01-10T05:41:15.978Z,6.32
2023-01-10T05:43:43.181Z,6.01
2023-01-10T05:46:10.974Z,6.01
2023-01-10T05:48:38.160Z,6.07
2023-01-10T05:51:05.963Z,6.22
2023-01-10T05:53:33.180Z,6.07
2023-01-10T05:56:02.174Z,6.06
2023-01-10T05:58:30.039Z,6.01
2023-01-10T06:00:58.455Z,6.16
2023-01-10T06:03:26.922Z,6.13
2023-01-10T06:05:56.668Z,5.67
2023-01-10T06:08:24.578Z,5.62
2023-01-10T06:10:53.679Z,5.62
2023-01-10T06:13:23.127Z,5.71
2023-01-10T06:15:51.552Z,5.70
2023-01-10T06:18:22.118Z,5.33
2023-01-10T06:20:49.757Z,5.54
2023-01-10T06:23:17.308Z,5.20
2023-01-10T06:25:45.170Z,5.50
2023-01-10T06:28:15.456Z,5.55
2023-01-10T06:30:43.640Z,5.57
2023-01-10T06:33:12.294Z,5.40
2023-01-10T06:35:40.021Z,5.03
2023-01-10T06:38:07.173Z,5.32
2023-01-10T06:40:34.988Z,4.94
2023-01-10T06:43:02.372Z,5.13
2023-01-10T06:45:29.772Z,5.21
2023-01-10T06:47:56.962Z,5.18
2023-01-10T06:50:26.884Z,5.25
2023-01-10T06:53:06.034Z,5.19
2023-01-10T06:55:33.634Z,5.41
2023-01-10T06:58:52.586Z,5.51
2023-01-10T07:01:22.279Z,5.38
2023-01-10T07:03:51.620Z,5.36
2023-01-10T07:06:27.148Z,5.46
2023-01-10T07:08:57.652Z,5.56
2023-01-10T07:11:26.583Z,5.46
2023-01-10T07:13:55.197Z,5.76
2023-01-10T07:16:27.206Z,5.67
2023-01-10T07:18:57.682Z,5.72
2023-01-10T07:21:27.610Z,5.93
2023-01-10T07:23:58.392Z,6.04
2023-01-10T07:26:30.011Z,5.84
2023-01-10T07:28:59.395Z,5.43
2023-01-10T07:31:26.958Z,5.72
2023-01-10T07:33:55.972Z,5.83
2023-01-10T07:36:23.956Z,5.51
2023-01-10T07:38:51.333Z,5.23
2023-01-10T07:41:18.791Z,5.18
2023-01-10T07:43:46.179Z,5.35
2023-01-10T07:46:13.784Z,5.39
2023-01-10T07:48:42.170Z,5.61
2023-01-10T07:51:10.717Z,5.54
2023-01-10T07:53:38.933Z,5.32
2023-01-10T07:56:07.981Z,5.39
2023-01-10T07:58:36.892Z,5.27
2023-01-10T08:01:07.983Z,5.36
2023-01-10T08:03:36.946Z,5.15
2023-01-10T08:06:16.783Z,5.52
2023-01-10T08:08:46.723Z,5.63
2023-01-10T08:11:43.741Z,5.79
2023-01-10T08:14:12.377Z,5.64
2023-01-10T08:16:49.161Z,5.28
2023-01-10T08:19:20.160Z,5.38
2023-01-10T08:21:48.361Z,5.37
2023-01-10T08:24:15.741Z,5.55
2023-01-10T08:26:51.666Z,4.96
2023-01-10T08:29:29.735Z,5.10
2023-01-10T08:32:31.555Z,5.18
2023-01-10T08:35:07.783Z,5.26
2023-01-10T08:37:40.318Z,5.45
2023-01-10T08:40:09.801Z,5.39
2023-01-10T08:42:38.386Z,5.40
2023-01-10T08:45:07.162Z,5.50
2023-01-10T08:47:40.348Z,5.80
2023-01-10T08:50:08.755Z,5.60
2023-01-10T08:52:42.089Z,5.48
2023-01-10T08:55:17.901Z,5.54
2023-01-10T08:57:46.552Z,5.32
2023-01-10T09:00:14.607Z,5.43
2023-01-10T09:02:42.840Z,5.64
2023-01-10T09:05:26.445Z,5.08
2023-01-10T09:08:07.615Z,5.44
2023-01-10T09:10:39.813Z,5.68
2023-01-10T09:13:11.385Z,5.55
2023-01-10T09:15:46.871Z,5.63
2023-01-10T09:18:17.326Z,5.63
2023-01-10T09:20:48.472Z,5.60
2023-01-10T09:23:23.210Z,5.57
2023-01-10T09:25:58.094Z,5.64
2023-01-10T09:28:25.911Z,6.01
2023-01-10T09:30:53.612Z,5.83
2023-01-10T09:33:28.101Z,5.82
2023-01-10T09:35:59.120Z,6.06
2023-01-10T09:38:26.614Z,5.82
2023-01-10T09:41:26.103Z,5.96
2023-01-10T09:44:07.682Z,5.94
2023-01-10T09:47:06.019Z,5.92
2023-01-10T09:49:57.269Z,6.10
2023-01-10T09:52:31.291Z,5.96
2023-01-10T09:55:20.660Z,6.05
2023-01-10T09:57:51.035Z,6.18
2023-01-10T10:00:45.286Z,6.18
2023-01-10T10:03:42.102Z,6.17
2023-01-10T10:06:13.057Z,6.30
2023-01-10T10:08:42.514Z,6.13
2023-01-10T10:14:54.202Z,6.43
2023-01-10T10:17:42.170Z,5.88
2023-01-10T10:20:46.657Z,5.96
2023-01-10T10:23:34.723Z,5.92
2023-01-10T10:26:51.585Z,5.83
2023-01-10T10:29:31.417Z,5.52
2023-01-10T10:33:05.877Z,5.49
2023-01-10T10:35:45.812Z,5.77
2023-01-10T10:38:38.850Z,5.58
2023-01-10T10:41:32.102Z,5.94
2023-01-10T10:44:05.489Z,6.02
2023-01-10T10:46:44.302Z,6.01
2023-01-10T10:49:34.843Z,6.10
2023-01-10T10:52:09.278Z,5.84
2023-01-10T10:54:39.352Z,5.86
2023-01-10T10:57:16.137Z,5.97
2023-01-10T10:59:48.739Z,6.02
2023-01-10T11:02:35.219Z,5.66
2023-01-10T11:05:39.957Z,5.64
2023-01-10T11:08:30.409Z,6.06
2023-01-10T11:11:00.653Z,6.28
2023-01-10T11:13:34.102Z,6.42
2023-01-10T11:16:04.706Z,6.42
2023-01-10T11:18:34.855Z,6.37
2023-01-10T11:21:10.164Z,6.45
2023-01-10T11:23:52.722Z,6.27
2023-01-10T11:26:40.294Z,5.80
2023-01-10T11:29:37.118Z,5.96
2023-01-10T11:32:15.717Z,6.10
2023-01-10T11:34:56.501Z,6.19
2023-01-10T11:37:29.453Z,6.15
2023-01-10T11:40:14.590Z,6.12
2023-01-10T11:42:41.798Z,6.13
2023-01-10T11:45:19.621Z,6.13
2023-01-10T11:47:58.159Z,6.39
2023-01-10T11:50:33.414Z,6.15
2023-01-10T11:53:02.508Z,6.19
2023-01-10T11:55:32.564Z,6.18
2023-01-10T11:58:11.445Z,6.33
2023-01-10T12:00:46.307Z,6.43
2023-01-10T12:03:29.169Z,6.45
2023-01-10T12:06:03.463Z,6.36
2023-01-10T12:08:38.386Z,6.35
2023-01-10T12:11:25.270Z,6.31
2023-01-10T12:13:58.351Z,6.26
2023-01-10T12:16:44.039Z,6.49
2023-01-10T12:19:17.578Z,6.58
2023-01-10T12:21:59.409Z,6.38
2023-01-10T12:24:38.316Z,6.47
2023-01-10T12:27:18.259Z,6.44
2023-01-10T12:30:00.166Z,6.42
2023-01-10T12:32:34.401Z,6.38
2023-01-10T12:35:06.868Z,6.35
2023-01-10T12:37:45.186Z,6.59
2023-01-10T12:40:21.544Z,6.52
2023-01-10T12:43:37.737Z,6.40
2023-01-10T12:46:29.584Z,6.39
2023-01-10T12:49:38.751Z,6.55
2023-01-10T12:52:26.422Z,6.32
2023-01-10T12:54:57.427Z,6.44
2023-01-10T12:57:36.379Z,6.47
2023-01-10T13:00:19.986Z,6.27
2023-01-10T13:03:02.783Z,6.40
2023-01-10T13:05:36.071Z,6.51
2023-01-10T13:08:16.502Z,6.57
2023-01-10T13:10:50.762Z,6.57
2023-01-10T13:13:44.007Z,6.32
2023-01-10T13:16:26.463Z,6.48
2023-01-10T13:19:05.654Z,6.48
2023-01-10T13:21:35.060Z,6.40
2023-01-10T13:24:20.065Z,6.55
2023-01-10T13:26:59.365Z,6.41
2023-01-10T13:29:30.307Z,6.29
2023-01-10T13:32:02.292Z,6.44
2023-01-10T13:34:36.025Z,6.29
2023-01-10T13:37:20.189Z,6.46
2023-01-10T13:39:59.938Z,6.54
2023-01-10T13:42:53.709Z,6.48
2023-01-10T13:45:36.745Z,6.46
2023-01-10T13:48:28.101Z,6.26
2023-01-10T13:51:13.665Z,5.92
2023-01-10T13:54:05.855Z,6.21
2023-01-10T13:56:44.186Z,6.25
2023-01-10T13:59:47.337Z,6.14
2023-01-10T14:02:32.239Z,5.88
2023-01-10T14:05:06.477Z,5.97
2023-01-10T14:07:46.661Z,5.86
2023-01-10T14:10:25.773Z,6.02
2023-01-10T14:13:11.433Z,6.26
2023-01-10T14:15:47.132Z,6.22
2023-01-10T14:18:53.166Z,6.31
2023-01-10T14:21:48.436Z,6.58
2023-01-10T14:24:42.513Z,6.72
2023-01-10T14:27:20.590Z,6.82
2023-01-10T14:30:01.314Z,6.92
2023-01-10T14:32:47.498Z,6.56
2023-01-10T14:35:31.103Z,6.68
2023-01-10T14:38:02.805Z,6.58
2023-01-10T14:40:49.510Z,6.42
2023-01-10T14:43:45.569Z,6.31
2023-01-10T14:46:29.618Z,6.36
2023-01-10T14:49:56.463Z,6.13
2023-01-10T14:52:30.321Z,6.40
2023-01-10T14:55:17.774Z,6.07
2023-01-10T14:58:03.797Z,6.06
2023-01-10T15:00:53.396Z,6.13
2023-01-10T15:03:24.948Z,6.01
2023-01-10T15:06:17.446Z,6.06
2023-01-10T15:09:28.015Z,5.85
2023-01-10T15:12:06.768Z,6.12
2023-01-10T15:14:37.102Z,6.12
2023-01-10T15:17:12.797Z,6.07
2023-01-10T15:20:13.401Z,6.19
2023-01-10T15:22:52.292Z,6.13
2023-01-10T15:25:33.353Z,6.09
2023-01-10T15:28:02.787Z,6.07
2023-01-10T15:30:36.127Z,5.98
2023-01-10T15:33:07.838Z,6.04
2023-01-10T15:35:37.111Z,6.15
2023-01-10T15:38:09.439Z,5.84
2023-01-10T15:41:33.647Z,5.80
2023-01-10T15:44:52.678Z,6.00
2023-01-10T15:47:42.476Z,5.87
2023-01-10T15:50:22.538Z,5.88
2023-01-10T15:52:52.712Z,6.09
2023-01-10T15:55:44.766Z,6.05
2023-01-10T15:58:22.440Z,6.15
2023-01-10T16:00:53.056Z,6.07
2023-01-10T16:03:47.933Z,5.98
2023-01-10T16:06:45.719Z,5.94
2023-01-10T16:09:26.978Z,5.87
2023-01-10T16:12:16.641Z,5.94
2023-01-10T16:14:51.648Z,6.24
2023-01-10T16:17:23.001Z,6.09
2023-01-10T16:20:02.431Z,5.84
2023-01-10T16:22:46.723Z,6.00
2023-01-10T16:25:36.976Z,5.77
2023-01-10T16:28:27.145Z,6.10
2023-01-10T16:31:01.817Z,5.92
2023-01-10T16:33:31.926Z,6.04
2023-01-10T16:36:04.403Z,5.77
2023-01-10T16:38:32.871Z,5.91
2023-01-10T16:41:22.393Z,5.86
2023-01-10T16:43:50.607Z,5.72
2023-01-10T16:46:18.607Z,5.63
2023-01-10T16:48:47.865Z,5.58
2023-01-10T16:51:19.981Z,5.71
2023-01-10T16:53:48.550Z,5.66
2023-01-10T16:56:22.471Z,5.48
2023-01-10T16:58:51.084Z,5.65
2023-01-10T17:01:35.099Z,5.72
2023-01-10T17:04:38.792Z,5.77
2023-01-10T17:07:12.546Z,5.91
2023-01-10T17:09:46.537Z,5.69
2023-01-10T17:12:24.594Z,5.94
2023-01-10T17:15:00.755Z,5.51
2023-01-10T17:17:33.446Z,5.13
2023-01-10T17:20:00.678Z,4.96
2023-01-10T17:22:28.108Z,4.93
2023-01-10T17:24:56.001Z,4.72
2023-01-10T17:27:27.262Z,4.78
2023-01-10T17:29:55.708Z,4.78
2023-01-10T17:32:28.287Z,4.87
2023-01-10T17:34:55.878Z,4.78
2023-01-10T17:37:24.866Z,4.68
2023-01-10T17:39:56.588Z,4.61
2023-01-10T17:42:26.794Z,4.59
2023-01-10T17:45:00.528Z,4.61
2023-01-10T17:47:28.396Z,4.59
2023-01-10T17:50:01.612Z,4.57
2023-01-10T17:52:30.763Z,4.58
2023-01-10T17:55:00.530Z,4.58
2023-01-10T17:57:41.467Z,4.65
2023-01-10T18:00:13.397Z,4.63
2023-01-10T18:02:46.501Z,4.66
2023-01-10T18:05:17.166Z,4.63
2023-01-10T18:07:51.384Z,4.71
2023-01-10T18:10:22.094Z,4.68
2023-01-10T18:12:53.368Z,4.78
2023-01-10T18:15:21.841Z,4.64
2023-01-10T18:17:55.861Z,4.67
2023-01-10T18:20:25.746Z,4.69
2023-01-10T18:23:11.773Z,4.74
2023-01-10T18:25:39.906Z,4.59
2023-01-10T18:28:08.875Z,4.65
2023-01-10T18:30:36.390Z,4.69
2023-01-10T18:33:03.855Z,4.57
2023-01-10T18:35:34.517Z,4.68
2023-01-10T18:40:53.466Z,4.67
2023-01-10T18:43:48.997Z,4.75
2023-01-10T18:46:21.217Z,4.80
2023-01-10T18:49:08.076Z,4.80
2023-01-10T18:51:37.142Z,4.67
2023-01-10T18:54:13.100Z,4.72
2023-01-10T18:56:51.738Z,4.62
2023-01-10T18:59:22.710Z,4.61
2023-01-10T19:01:53.243Z,4.66
2023-01-10T19:04:33.641Z,4.66
2023-01-10T19:07:02.464Z,4.65
2023-01-10T19:09:29.938Z,4.65
2023-01-10T19:12:15.942Z,4.72
2023-01-10T19:14:44.486Z,4.67
2023-01-10T19:17:14.167Z,4.70
2023-01-10T19:19:48.956Z,4.60
2023-01-10T19:22:19.445Z,4.62
2023-01-10T19:27:46.032Z,4.63
2023-01-10T19:33:13.100Z,4.52
2023-01-10T19:36:00.443Z,4.55
2023-01-10T19:38:35.650Z,4.55
2023-01-10T19:41:28.009Z,4.58
2023-01-10T19:44:28.063Z,4.56
2023-01-10T19:47:07.781Z,4.61
2023-01-10T19:49:48.946Z,4.58
2023-01-10T19:52:21.463Z,4.63
2023-01-10T19:54:50.884Z,4.65
2023-01-10T19:57:18.742Z,4.61
2023-01-10T19:59:52.059Z,4.53
2023-01-10T20:02:21.323Z,4.62
2023-01-10T20:04:48.508Z,4.64
2023-01-10T20:07:24.228Z,4.60
2023-01-10T20:09:59.893Z,4.63
2023-01-10T20:12:28.548Z,4.60
2023-01-10T20:14:55.828Z,4.58
2023-01-10T20:17:23.524Z,4.57
2023-01-10T20:19:53.543Z,4.65
2023-01-10T20:22:22.340Z,4.66
2023-01-10T20:24:49.840Z,4.76
2023-01-10T20:27:23.918Z,4.68
2023-01-10T20:29:52.931Z,4.81
2023-01-10T20:32:22.957Z,4.90
2023-01-10T20:34:59.867Z,4.77
2023-01-10T20:37:29.585Z,4.80
2023-01-10T20:39:58.519Z,4.77
2023-01-10T20:42:28.629Z,4.69
2023-01-10T20:44:57.073Z,4.66
2023-01-10T20:47:24.525Z,4.60
2023-01-10T20:49:51.639Z,4.58
2023-01-10T20:52:20.401Z,4.62
2023-01-10T20:55:13.859Z,4.52
2023-01-10T20:57:43.499Z,4.33
2023-01-10T21:00:15.242Z,4.33
2023-01-10T21:02:50.681Z,4.32
2023-01-10T21:05:18.988Z,4.24
2023-01-10T21:07:49.331Z,4.14
2023-01-10T21:10:20.039Z,4.08
2023-01-10T21:13:02.958Z,4.18
2023-01-10T21:15:30.771Z,4.14
2023-01-10T21:17:58.256Z,4.08
2023-01-10T21:20:28.315Z,4.21
2023-01-10T21:22:59.829Z,4.09
2023-01-10T21:25:28.900Z,4.14
2023-01-10T21:27:58.375Z,4.22
2023-01-10T21:30:25.533Z,4.14
2023-01-10T21:32:52.990Z,4.08
2023-01-10T21:35:20.237Z,4.00
2023-01-10T21:37:49.553Z,3.94
2023-01-10T21:40:17.171Z,3.87
2023-01-10T21:42:47.386Z,3.87
2023-01-10T21:45:14.952Z,3.79
2023-01-10T21:47:42.492Z,3.83
2023-01-10T21:50:12.198Z,3.85
2023-01-10T21:52:40.726Z,3.84
2023-01-10T21:55:09.842Z,3.75
2023-01-10T21:57:39.608Z,3.86
2023-01-10T22:00:10.135Z,3.94
2023-01-10T22:02:44.380Z,3.90
2023-01-10T22:05:11.941Z,3.87
2023-01-10T22:07:39.530Z,3.93
2023-01-10T22:10:08.251Z,3.93
2023-01-10T22:12:36.798Z,4.05
2023-01-10T22:15:04.691Z,4.04
2023-01-10T22:17:32.701Z,4.05
2023-01-10T22:20:02.079Z,4.05
2023-01-10T22:22:34.058Z,4.11
2023-01-10T22:25:01.178Z,4.15
2023-01-10T22:27:30.749Z,4.25
2023-01-10T22:29:57.947Z,4.33
2023-01-10T22:32:25.449Z,4.34
2023-01-10T22:34:52.654Z,4.33
2023-01-10T22:37:21.519Z,4.30
2023-01-10T22:39:48.818Z,4.35
2023-01-10T22:42:16.353Z,4.40
2023-01-10T22:44:53.178Z,4.50
2023-01-10T22:47:21.376Z,4.55
2023-01-10T22:49:48.610Z,4.54
2023-01-10T22:52:16.002Z,4.50
2023-01-10T22:54:43.231Z,4.51
2023-01-10T22:57:10.820Z,4.52
2023-01-10T22:59:38.282Z,4.58
2023-01-10T23:02:05.778Z,4.57
2023-01-10T23:04:33.815Z,4.67
2023-01-10T23:07:03.537Z,4.74
2023-01-10T23:09:30.852Z,4.76
2023-01-10T23:11:58.349Z,4.83
2023-01-10T23:14:25.456Z,4.82
2023-01-10T23:16:52.903Z,4.64
2023-01-10T23:19:20.074Z,4.57
2023-01-10T23:21:48.379Z,4.65
2023-01-10T23:24:17.398Z,4.59
2023-01-10T23:26:45.430Z,4.51
2023-01-10T23:29:12.663Z,4.54
2023-01-10T23:31:40.534Z,4.54
2023-01-10T23:34:08.669Z,4.53
2023-01-10T23:36:36.176Z,4.48
2023-01-10T23:39:03.396Z,4.50
2023-01-10T23:41:30.818Z,4.44
2023-01-10T23:43:58.156Z,4.47
2023-01-10T23:46:25.805Z,4.42
2023-01-10T23:48:52.957Z,4.46
2023-01-10T23:51:20.557Z,4.37
2023-01-10T23:53:47.712Z,4.41
2023-01-10T23:56:16.985Z,4.46
2023-01-10T23:58:45.942Z,4.37
